sensor_id;sensor_type;location;lat;lon;timestamp;pressure;altitude;pressure_sealevel;temperature;humidity
57799;BME280;43626;53.866;30.298;2023-05-24T00:01:52;1022.5;;;14.8;57.3
57799;BME280;43626;53.866;30.298;2023-05-24T00:06:51;1022.4;;;14.8;57.5
57799;BME280;43626;53.866;30.298;2023-05-24T00:11:38;1022.4;;;14.7;57.2
57799;BME280;43626;53.866;30.298;2023-05-24T00:17:12;1022.3;;;14.6;57.4
57799;BME280;43626;53.866;30.298;2023-05-24T00:21:58;1022.4;;;14.6;57.5
57799;BME280;43626;53.866;30.298;2023-05-24T00:27:05;1022.4;;;14.5;57.8
57799;BME280;43626;53.866;30.298;2023-05-24T00:32:05;1022.4;;;14.4;57.9
57799;BME280;43626;53.866;30.298;2023-05-24T00:36:50;1022.4;;;14.4;59.3
57799;BME280;43626;53.866;30.298;2023-05-24T00:41:50;1022.3;;;14.4;59.9
57799;BME280;43626;53.866;30.298;2023-05-24T00:46:52;1022.3;;;14.5;59.5
57799;BME280;43626;53.866;30.298;2023-05-24T00:51:30;1022.3;;;14.5;59.2
57799;BME280;43626;53.866;30.298;2023-05-24T00:57:12;1022.4;;;14.5;58.5
57799;BME280;43626;53.866;30.298;2023-05-24T01:01:38;1022.3;;;14.5;58
57799;BME280;43626;53.866;30.298;2023-05-24T01:07:23;1022.3;;;14.4;58
57799;BME280;43626;53.866;30.298;2023-05-24T01:12:19;1022.2;;;14.3;57.9
57799;BME280;43626;53.866;30.298;2023-05-24T01:16:31;1022.3;;;14.2;57.8
57799;BME280;43626;53.866;30.298;2023-05-24T01:21:34;1022.3;;;14.1;57.6
57799;BME280;43626;53.866;30.298;2023-05-24T01:27:03;1022.3;;;14;57.8
57799;BME280;43626;53.866;30.298;2023-05-24T01:32:12;1022.3;;;13.9;57.8
57799;BME280;43626;53.866;30.298;2023-05-24T01:36:38;1022.3;;;13.8;57.9
57799;BME280;43626;53.866;30.298;2023-05-24T01:42:02;1022.3;;;13.8;57.9
57799;BME280;43626;53.866;30.298;2023-05-24T01:46:52;1022.4;;;13.7;57.9
57799;BME280;43626;53.866;30.298;2023-05-24T01:51:40;1022.3;;;13.7;58.1
57799;BME280;43626;53.866;30.298;2023-05-24T01:56:38;1022.3;;;13.6;57.9
57799;BME280;43626;53.866;30.298;2023-05-24T02:01:42;1022.3;;;13.6;57.8
57799;BME280;43626;53.866;30.298;2023-05-24T02:06:58;1022.3;;;13.5;58.1
57799;BME280;43626;53.866;30.298;2023-05-24T02:11:58;1022.3;;;13.5;58
57799;BME280;43626;53.866;30.298;2023-05-24T02:17:04;1022.4;;;13.5;58
57799;BME280;43626;53.866;30.298;2023-05-24T02:22:13;1022.4;;;13.6;58.4
57799;BME280;43626;53.866;30.298;2023-05-24T02:26:38;1022.5;;;13.6;58.5
57799;BME280;43626;53.866;30.298;2023-05-24T02:32:00;1022.5;;;13.6;58.4
57799;BME280;43626;53.866;30.298;2023-05-24T02:37:00;1022.5;;;13.6;58.6
57799;BME280;43626;53.866;30.298;2023-05-24T02:41:46;1022.5;;;13.6;58.9
57799;BME280;43626;53.866;30.298;2023-05-24T02:47:15;1022.5;;;13.7;59
57799;BME280;43626;53.866;30.298;2023-05-24T02:51:53;1022.4;;;13.8;59.5
57799;BME280;43626;53.866;30.298;2023-05-24T02:57:14;1022.5;;;13.9;59.9
57799;BME280;43626;53.866;30.298;2023-05-24T03:01:59;1022.5;;;14;60
57799;BME280;43626;53.866;30.298;2023-05-24T03:06:51;1022.5;;;14.2;60.5
57799;BME280;43626;53.866;30.298;2023-05-24T03:11:38;1022.5;;;14.3;60.7
57799;BME280;43626;53.866;30.298;2023-05-24T03:16:31;1022.5;;;14.5;60.8
57799;BME280;43626;53.866;30.298;2023-05-24T03:21:30;1022.5;;;14.6;61
57799;BME280;43626;53.866;30.298;2023-05-24T03:27:13;1022.5;;;14.8;60.7
57799;BME280;43626;53.866;30.298;2023-05-24T03:31:43;1022.5;;;14.9;60.5
57799;BME280;43626;53.866;30.298;2023-05-24T03:37:13;1022.5;;;15.1;60.3
57799;BME280;43626;53.866;30.298;2023-05-24T03:42:05;1022.5;;;15.3;61
57799;BME280;43626;53.866;30.298;2023-05-24T03:46:59;1022.6;;;15.7;60.6
57799;BME280;43626;53.866;30.298;2023-05-24T03:51:31;1022.5;;;16.1;59.8
57799;BME280;43626;53.866;30.298;2023-05-24T03:56:59;1022.5;;;16.4;59
57799;BME280;43626;53.866;30.298;2023-05-24T04:02:15;1022.5;;;16.6;57.9
57799;BME280;43626;53.866;30.298;2023-05-24T04:06:51;1022.5;;;16.7;57.8
57799;BME280;43626;53.866;30.298;2023-05-24T04:12:01;1022.5;;;17;57.4
57799;BME280;43626;53.866;30.298;2023-05-24T04:16:31;1022.5;;;17.3;56.7
57799;BME280;43626;53.866;30.298;2023-05-24T04:21:39;1022.5;;;17.5;55.8
57799;BME280;43626;53.866;30.298;2023-05-24T04:26:39;1022.5;;;17.8;54.5
57799;BME280;43626;53.866;30.298;2023-05-24T04:31:57;1022.5;;;17.9;54
57799;BME280;43626;53.866;30.298;2023-05-24T04:36:59;1022.5;;;17.9;53.8
57799;BME280;43626;53.866;30.298;2023-05-24T04:41:57;1022.5;;;18.1;53.2
57799;BME280;43626;53.866;30.298;2023-05-24T04:47:07;1022.5;;;18.1;53.2
57799;BME280;43626;53.866;30.298;2023-05-24T04:52:15;1022.5;;;18.3;53
57799;BME280;43626;53.866;30.298;2023-05-24T04:56:31;1022.6;;;18.5;52.6
57799;BME280;43626;53.866;30.298;2023-05-24T05:02:03;1022.6;;;18.5;52.2
57799;BME280;43626;53.866;30.298;2023-05-24T05:07:03;1022.6;;;18.6;52
57799;BME280;43626;53.866;30.298;2023-05-24T05:11:43;1022.6;;;18.6;51.9
57799;BME280;43626;53.866;30.298;2023-05-24T05:17:15;1022.6;;;18.5;51.3
57799;BME280;43626;53.866;30.298;2023-05-24T05:22:07;1022.6;;;18.6;51.3
57799;BME280;43626;53.866;30.298;2023-05-24T05:26:43;1022.6;;;18.6;51.6
57799;BME280;43626;53.866;30.298;2023-05-24T05:31:31;1022.7;;;18.6;51.7
57799;BME280;43626;53.866;30.298;2023-05-24T05:36:41;1022.7;;;18.7;51.9
57799;BME280;43626;53.866;30.298;2023-05-24T05:42:03;1022.8;;;18.9;51.8
57799;BME280;43626;53.866;30.298;2023-05-24T05:46:31;1022.8;;;19;51.8
57799;BME280;43626;53.866;30.298;2023-05-24T05:52:07;1022.8;;;19.2;51.6
57799;BME280;43626;53.866;30.298;2023-05-24T05:57:15;1022.8;;;19.2;51.7
57799;BME280;43626;53.866;30.298;2023-05-24T06:01:43;1022.8;;;19.3;51.5
57799;BME280;43626;53.866;30.298;2023-05-24T06:07:05;1022.9;;;19.4;51.5
57799;BME280;43626;53.866;30.298;2023-05-24T06:11:53;1022.9;;;19.4;51
57799;BME280;43626;53.866;30.298;2023-05-24T06:16:43;1022.9;;;19.5;51.1
57799;BME280;43626;53.866;30.298;2023-05-24T06:22:17;1022.9;;;19.6;50.5
57799;BME280;43626;53.866;30.298;2023-05-24T06:26:43;1022.9;;;19.7;49.9
57799;BME280;43626;53.866;30.298;2023-05-24T06:32:01;1022.9;;;19.8;50
57799;BME280;43626;53.866;30.298;2023-05-24T06:36:43;1022.9;;;20;48.9
57799;BME280;43626;53.866;30.298;2023-05-24T06:42:15;1022.9;;;20.2;48.4
57799;BME280;43626;53.866;30.298;2023-05-24T06:46:55;1022.9;;;20.3;48.4
57799;BME280;43626;53.866;30.298;2023-05-24T06:51:43;1022.9;;;20.4;48.1
57799;BME280;43626;53.866;30.298;2023-05-24T06:56:49;1022.9;;;20.5;47.6
57799;BME280;43626;53.866;30.298;2023-05-24T07:02:15;1022.9;;;20.7;47.2
57799;BME280;43626;53.866;30.298;2023-05-24T07:06:43;1022.9;;;20.9;46.4
57799;BME280;43626;53.866;30.298;2023-05-24T07:12:15;1022.9;;;21;45.5
57799;BME280;43626;53.866;30.298;2023-05-24T07:17:05;1022.9;;;21.2;43.9
57799;BME280;43626;53.866;30.298;2023-05-24T07:21:55;1022.9;;;21.2;43.3
57799;BME280;43626;53.866;30.298;2023-05-24T07:27:07;1022.9;;;21.2;43.5
57799;BME280;43626;53.866;30.298;2023-05-24T07:32:15;1022.9;;;21.4;42.9
57799;BME280;43626;53.866;30.298;2023-05-24T07:37:15;1022.9;;;21.6;42.4
57799;BME280;43626;53.866;30.298;2023-05-24T07:41:41;1022.9;;;21.7;42.4
57799;BME280;43626;53.866;30.298;2023-05-24T07:47:15;1022.9;;;21.9;42.3
57799;BME280;43626;53.866;30.298;2023-05-24T07:52:07;1022.9;;;22.1;42
57799;BME280;43626;53.866;30.298;2023-05-24T07:56:43;1022.9;;;22.2;41.4
57799;BME280;43626;53.866;30.298;2023-05-24T08:01:49;1022.9;;;22.3;41
57799;BME280;43626;53.866;30.298;2023-05-24T08:06:53;1023;;;22.4;40.3
57799;BME280;43626;53.866;30.298;2023-05-24T08:12:03;1023;;;22.5;39.2
57799;BME280;43626;53.866;30.298;2023-05-24T08:16:31;1023;;;22.6;38.6
57799;BME280;43626;53.866;30.298;2023-05-24T08:22:07;1023;;;22.7;38.6
57799;BME280;43626;53.866;30.298;2023-05-24T08:27:15;1023;;;22.8;38.1
57799;BME280;43626;53.866;30.298;2023-05-24T08:31:43;1023;;;23;38.3
57799;BME280;43626;53.866;30.298;2023-05-24T08:37:03;1023;;;23.1;38.1
57799;BME280;43626;53.866;30.298;2023-05-24T08:41:53;1023;;;23.2;38.3
57799;BME280;43626;53.866;30.298;2023-05-24T08:46:31;1023;;;23.4;38.1
57799;BME280;43626;53.866;30.298;2023-05-24T08:52:15;1023;;;23.6;38
57799;BME280;43626;53.866;30.298;2023-05-24T08:57:01;1022.9;;;23.7;38.1
57799;BME280;43626;53.866;30.298;2023-05-24T09:02:07;1022.9;;;23.9;37
57799;BME280;43626;53.866;30.298;2023-05-24T09:06:31;1022.9;;;23.9;36.2
57799;BME280;43626;53.866;30.298;2023-05-24T09:11:42;1022.9;;;24.1;36.2
57799;BME280;43626;53.866;30.298;2023-05-24T09:16:55;1022.9;;;24.3;35.8
57799;BME280;43626;53.866;30.298;2023-05-24T09:21:43;1022.9;;;24.4;34.9
57799;BME280;43626;53.866;30.298;2023-05-24T09:27:03;1023;;;24;34.5
57799;BME280;43626;53.866;30.298;2023-05-24T09:32:17;1023;;;23.6;35.6
57799;BME280;43626;53.866;30.298;2023-05-24T09:36:31;1023;;;23.4;35.9
57799;BME280;43626;53.866;30.298;2023-05-24T09:42:17;1023;;;23.3;36.4
57799;BME280;43626;53.866;30.298;2023-05-24T09:46:34;1023;;;23.2;36.7
57799;BME280;43626;53.866;30.298;2023-05-24T09:51:55;1023;;;23.3;36.9
57799;BME280;43626;53.866;30.298;2023-05-24T09:56:51;1023;;;23.2;37.8
57799;BME280;43626;53.866;30.298;2023-05-24T10:02:06;1023.1;;;23.1;38
57799;BME280;43626;53.866;30.298;2023-05-24T10:07:17;1023.1;;;23;38.7
57799;BME280;43626;53.866;30.298;2023-05-24T10:11:53;1023.1;;;23.2;39.1
57799;BME280;43626;53.866;30.298;2023-05-24T10:16:47;1023.1;;;23.7;38.1
57799;BME280;43626;53.866;30.298;2023-05-24T10:21:55;1023;;;24;37.3
57799;BME280;43626;53.866;30.298;2023-05-24T10:26:43;1023.1;;;24.4;36.6
57799;BME280;43626;53.866;30.298;2023-05-24T10:31:49;1023.1;;;24.7;36.4
57799;BME280;43626;53.866;30.298;2023-05-24T10:36:53;1023;;;24.9;35.9
57799;BME280;43626;53.866;30.298;2023-05-24T10:42:03;1023.1;;;25.1;35.1
57799;BME280;43626;53.866;30.298;2023-05-24T10:46:33;1023;;;25.1;34.4
57799;BME280;43626;53.866;30.298;2023-05-24T10:51:34;1023;;;25.2;34.4
57799;BME280;43626;53.866;30.298;2023-05-24T10:57:15;1023;;;25.4;32.6
57799;BME280;43626;53.866;30.298;2023-05-24T11:01:32;1023;;;25.5;31.8
57799;BME280;43626;53.866;30.298;2023-05-24T11:06:53;1023;;;25.5;31.1
57799;BME280;43626;53.866;30.298;2023-05-24T11:12:05;1022.9;;;25.5;29.7
57799;BME280;43626;53.866;30.298;2023-05-24T11:16:31;1022.9;;;25.5;30.1
57799;BME280;43626;53.866;30.298;2023-05-24T11:22:15;1022.9;;;25.7;30.7
57799;BME280;43626;53.866;30.298;2023-05-24T11:27:01;1022.9;;;25.8;30.2
57799;BME280;43626;53.866;30.298;2023-05-24T11:32:07;1022.9;;;25.8;29.7
57799;BME280;43626;53.866;30.298;2023-05-24T11:37:03;1022.8;;;26;29.3
57799;BME280;43626;53.866;30.298;2023-05-24T11:41:53;1022.8;;;26.3;29.4
57799;BME280;43626;53.866;30.298;2023-05-24T11:46:56;1022.8;;;26.5;29.4
57799;BME280;43626;53.866;30.298;2023-05-24T11:51:43;1022.8;;;26.7;29.1
57799;BME280;43626;53.866;30.298;2023-05-24T11:56:49;1022.7;;;26.8;29
57799;BME280;43626;53.866;30.298;2023-05-24T12:02:15;1022.7;;;26.9;28.6
57799;BME280;43626;53.866;30.298;2023-05-24T12:06:34;1022.7;;;27;28.9
57799;BME280;43626;53.866;30.298;2023-05-24T12:12:15;1022.7;;;26.6;29.3
57799;BME280;43626;53.866;30.298;2023-05-24T12:17:15;1022.7;;;26.1;29.9
57799;BME280;43626;53.866;30.298;2023-05-24T12:21:55;1022.7;;;25.7;30.3
57799;BME280;43626;53.866;30.298;2023-05-24T12:26:39;1022.6;;;25.4;30.8
57799;BME280;43626;53.866;30.298;2023-05-24T12:31:49;1022.6;;;25.1;31.2
57799;BME280;43626;53.866;30.298;2023-05-24T12:37:16;1022.6;;;25.2;31.2
57799;BME280;43626;53.866;30.298;2023-05-24T12:41:31;1022.6;;;25.6;30.9
57799;BME280;43626;53.866;30.298;2023-05-24T12:46:51;1022.5;;;25.8;30
57799;BME280;43626;53.866;30.298;2023-05-24T12:52:03;1022.5;;;25.9;30
57799;BME280;43626;53.866;30.298;2023-05-24T12:56:31;1022.5;;;26.1;30.3
57799;BME280;43626;53.866;30.298;2023-05-24T13:01:49;1022.4;;;26.3;29.8
57799;BME280;43626;53.866;30.298;2023-05-24T13:06:53;1022.4;;;26.6;29.6
57799;BME280;43626;53.866;30.298;2023-05-24T13:12:03;1022.5;;;27;29.2
57799;BME280;43626;53.866;30.298;2023-05-24T13:17:01;1022.4;;;27.3;29.1
57799;BME280;43626;53.866;30.298;2023-05-24T13:22:07;1022.4;;;27.6;29
57799;BME280;43626;53.866;30.298;2023-05-24T13:27:17;1022.4;;;27.9;29.2
57799;BME280;43626;53.866;30.298;2023-05-24T13:31:31;1022.4;;;28.1;29.1
57799;BME280;43626;53.866;30.298;2023-05-24T13:36:53;1022.3;;;28.3;28.9
57799;BME280;43626;53.866;30.298;2023-05-24T13:42:05;1022.4;;;28.3;28
57799;BME280;43626;53.866;30.298;2023-05-24T13:46:31;1022.4;;;28;28.1
57799;BME280;43626;53.866;30.298;2023-05-24T13:52:17;1022.4;;;27.9;27.2
57799;BME280;43626;53.866;30.298;2023-05-24T13:57:03;1022.4;;;27.7;28.6
57799;BME280;43626;53.866;30.298;2023-05-24T14:02:15;1022.4;;;27.7;30.2
57799;BME280;43626;53.866;30.298;2023-05-24T14:07:03;1022.4;;;27.7;29.1
57799;BME280;43626;53.866;30.298;2023-05-24T14:12:07;1022.5;;;27.7;29.3
57799;BME280;43626;53.866;30.298;2023-05-24T14:16:45;1022.5;;;27.8;29.4
57799;BME280;43626;53.866;30.298;2023-05-24T14:21:55;1022.5;;;27.9;29.4
57799;BME280;43626;53.866;30.298;2023-05-24T14:26:55;1022.4;;;28;29.4
57799;BME280;43626;53.866;30.298;2023-05-24T14:32:17;1022.5;;;28.1;29.3
57799;BME280;43626;53.866;30.298;2023-05-24T14:36:31;1022.5;;;28.2;29
57799;BME280;43626;53.866;30.298;2023-05-24T14:41:33;1022.6;;;28.4;28.3
57799;BME280;43626;53.866;30.298;2023-05-24T14:46:31;1022.6;;;28.3;27.2
57799;BME280;43626;53.866;30.298;2023-05-24T14:51:31;1022.6;;;28;27.6
57799;BME280;43626;53.866;30.298;2023-05-24T14:57:17;1022.7;;;27.8;27.8
57799;BME280;43626;53.866;30.298;2023-05-24T15:02:01;1022.6;;;27.5;28
57799;BME280;43626;53.866;30.298;2023-05-24T15:06:55;1022.6;;;27.5;28.6
57799;BME280;43626;53.866;30.298;2023-05-24T15:12:07;1022.6;;;27.9;28.3
57799;BME280;43626;53.866;30.298;2023-05-24T15:16:43;1022.5;;;28.1;28.5
57799;BME280;43626;53.866;30.298;2023-05-24T15:21:43;1022.5;;;28.3;29
57799;BME280;43626;53.866;30.298;2023-05-24T15:26:31;1022.5;;;28.5;29.2
57799;BME280;43626;53.866;30.298;2023-05-24T15:31:32;1022.5;;;28.6;29.3
57799;BME280;43626;53.866;30.298;2023-05-24T15:37:15;1022.5;;;28.5;29.1
57799;BME280;43626;53.866;30.298;2023-05-24T15:42:07;1022.6;;;28.4;29.2
57799;BME280;43626;53.866;30.298;2023-05-24T15:47:15;1022.6;;;28.5;30
57799;BME280;43626;53.866;30.298;2023-05-24T15:51:34;1022.6;;;28.6;30.3
57799;BME280;43626;53.866;30.298;2023-05-24T15:56:43;1022.6;;;28.9;30
57799;BME280;43626;53.866;30.298;2023-05-24T16:02:07;1022.7;;;29.1;29.1
57799;BME280;43626;53.866;30.298;2023-05-24T16:07:15;1022.8;;;29;28.1
57799;BME280;43626;53.866;30.298;2023-05-24T16:12:15;1022.8;;;28.8;28
57799;BME280;43626;53.866;30.298;2023-05-24T16:16:43;1022.8;;;28.7;28.1
57799;BME280;43626;53.866;30.298;2023-05-24T16:22:15;1022.9;;;28.5;28.1
57799;BME280;43626;53.866;30.298;2023-05-24T16:26:55;1023;;;28.1;28.5
57799;BME280;43626;53.866;30.298;2023-05-24T16:31:43;1022.9;;;27.6;29.3
57799;BME280;43626;53.866;30.298;2023-05-24T16:36:37;1023;;;27.3;28.4
57799;BME280;43626;53.866;30.298;2023-05-24T16:41:53;1022.9;;;27;27.8
57799;BME280;43626;53.866;30.298;2023-05-24T16:46:45;1023;;;27;28
57799;BME280;43626;53.866;30.298;2023-05-24T16:51:31;1023;;;27.3;27.5
57799;BME280;43626;53.866;30.298;2023-05-24T16:57:07;1023;;;27.3;27.8
57799;BME280;43626;53.866;30.298;2023-05-24T17:02:15;1023;;;27.2;27.8
57799;BME280;43626;53.866;30.298;2023-05-24T17:06:43;1023;;;27.5;27.6
57799;BME280;43626;53.866;30.298;2023-05-24T17:11:51;1023;;;27;27.5
57799;BME280;43626;53.866;30.298;2023-05-24T17:16:31;1023;;;26.4;28
57799;BME280;43626;53.866;30.298;2023-05-24T17:21:31;1023;;;26.5;28.1
57799;BME280;43626;53.866;30.298;2023-05-24T17:27:15;1023;;;26.4;28.1
57799;BME280;43626;53.866;30.298;2023-05-24T17:32:01;1023;;;26;28.5
57799;BME280;43626;53.866;30.298;2023-05-24T17:37:07;1023.1;;;25.7;31.8
57799;BME280;43626;53.866;30.298;2023-05-24T17:41:31;1023.2;;;25.7;32.4
57799;BME280;43626;53.866;30.298;2023-05-24T17:46:57;1023.2;;;25.5;32.3
57799;BME280;43626;53.866;30.298;2023-05-24T17:51:56;1023.3;;;25;32.5
57799;BME280;43626;53.866;30.298;2023-05-24T17:56:37;1023.4;;;24.5;33
57799;BME280;43626;53.866;30.298;2023-05-24T18:01:37;1023.5;;;24.2;33.2
57799;BME280;43626;53.866;30.298;2023-05-24T18:07:15;1023.6;;;23.9;33.3
57799;BME280;43626;53.866;30.298;2023-05-24T18:11:43;1023.7;;;23.6;34.1
57799;BME280;43626;53.866;30.298;2023-05-24T18:17:15;1023.7;;;23.4;35.3
57799;BME280;43626;53.866;30.298;2023-05-24T18:22:07;1023.7;;;23.3;37.5
57799;BME280;43626;53.866;30.298;2023-05-24T18:26:55;1023.8;;;23.1;38.5
57799;BME280;43626;53.866;30.298;2023-05-24T18:31:53;1023.9;;;22.9;38.9
57799;BME280;43626;53.866;30.298;2023-05-24T18:37:13;1023.9;;;22.7;38.7
57799;BME280;43626;53.866;30.298;2023-05-24T18:42:13;1023.9;;;22.5;38.8
57799;BME280;43626;53.866;30.298;2023-05-24T18:46:41;1023.9;;;22.3;38.8
57799;BME280;43626;53.866;30.298;2023-05-24T18:51:53;1023.9;;;22.1;38.8
57799;BME280;43626;53.866;30.298;2023-05-24T18:56:53;1023.9;;;22.1;39
57799;BME280;43626;53.866;30.298;2023-05-24T19:01:31;1023.9;;;22;39.5
57799;BME280;43626;53.866;30.298;2023-05-24T19:06:31;1023.9;;;21.8;39.7
57799;BME280;43626;53.866;30.298;2023-05-24T19:11:31;1023.9;;;21.8;39.9
57799;BME280;43626;53.866;30.298;2023-05-24T19:17:03;1023.9;;;21.7;40.2
57799;BME280;43626;53.866;30.298;2023-05-24T19:22:01;1024;;;21.4;40.9
57799;BME280;43626;53.866;30.298;2023-05-24T19:26:43;1023.9;;;21.3;41.1
57799;BME280;43626;53.866;30.298;2023-05-24T19:32:15;1023.9;;;21.2;41
57799;BME280;43626;53.866;30.298;2023-05-24T19:36:31;1023.9;;;21.2;41.4
57799;BME280;43626;53.866;30.298;2023-05-24T19:42:05;1024.1;;;21.3;41.3
57799;BME280;43626;53.866;30.298;2023-05-24T19:47:05;1024.1;;;21.3;41.7
57799;BME280;43626;53.866;30.298;2023-05-24T19:51:31;1024.2;;;21.3;41.8
57799;BME280;43626;53.866;30.298;2023-05-24T19:57:15;1024.2;;;21.3;42.1
57799;BME280;43626;53.866;30.298;2023-05-24T20:01:59;1024.2;;;21.2;42.3
57799;BME280;43626;53.866;30.298;2023-05-24T20:07:15;1024.2;;;21.1;42.5
57799;BME280;43626;53.866;30.298;2023-05-24T20:11:51;1024.2;;;21;43.4
57799;BME280;43626;53.866;30.298;2023-05-24T20:16:53;1024.1;;;20.9;44
57799;BME280;43626;53.866;30.298;2023-05-24T20:21:43;1024.2;;;20.7;44.8
57799;BME280;43626;53.866;30.298;2023-05-24T20:26:31;1024.2;;;20.4;45.7
57799;BME280;43626;53.866;30.298;2023-05-24T20:31:51;1024.1;;;20.2;46.7
57799;BME280;43626;53.866;30.298;2023-05-24T20:37:17;1024.1;;;20.1;46.8
57799;BME280;43626;53.866;30.298;2023-05-24T20:41:31;1024.2;;;20;46.8
57799;BME280;43626;53.866;30.298;2023-05-24T20:47:17;1024.2;;;19.9;47.2
57799;BME280;43626;53.866;30.298;2023-05-24T20:52:17;1024.2;;;19.7;47.5
57799;BME280;43626;53.866;30.298;2023-05-24T20:56:31;1024.1;;;19.6;47.7
57799;BME280;43626;53.866;30.298;2023-05-24T21:01:31;1024.1;;;19.4;47.9
57799;BME280;43626;53.866;30.298;2023-05-24T21:07:15;1024.2;;;19.3;48.1
57799;BME280;43626;53.866;30.298;2023-05-24T21:12:15;1024.2;;;19.1;49.2
57799;BME280;43626;53.866;30.298;2023-05-24T21:16:53;1024.2;;;19;50.1
57799;BME280;43626;53.866;30.298;2023-05-24T21:21:43;1024.2;;;18.8;50.6
57799;BME280;43626;53.866;30.298;2023-05-24T21:27:03;1024.2;;;18.7;50.9
57799;BME280;43626;53.866;30.298;2023-05-24T21:31:55;1024.2;;;18.6;51.2
57799;BME280;43626;53.866;30.298;2023-05-24T21:36:37;1024.2;;;18.6;51.4
57799;BME280;43626;53.866;30.298;2023-05-24T21:41:53;1024.2;;;18.4;51.1
57799;BME280;43626;53.866;30.298;2023-05-24T21:47:15;1024.2;;;18.3;51.3
57799;BME280;43626;53.866;30.298;2023-05-24T21:52:01;1024.1;;;18.2;51.6
57799;BME280;43626;53.866;30.298;2023-05-24T21:57:15;1024.1;;;18.2;51.9
57799;BME280;43626;53.866;30.298;2023-05-24T22:02:15;1024.1;;;18.1;52
57799;BME280;43626;53.866;30.298;2023-05-24T22:06:43;1024.1;;;18;52.3
57799;BME280;43626;53.866;30.298;2023-05-24T22:11:47;1024.2;;;17.9;52.9
57799;BME280;43626;53.866;30.298;2023-05-24T22:17:01;1024.2;;;17.8;53
57799;BME280;43626;53.866;30.298;2023-05-24T22:21:31;1024.2;;;17.7;53.3
57799;BME280;43626;53.866;30.298;2023-05-24T22:27:13;1024.2;;;17.6;53.5
57799;BME280;43626;53.866;30.298;2023-05-24T22:31:59;1024.2;;;17.5;53.6
57799;BME280;43626;53.866;30.298;2023-05-24T22:37:13;1024.3;;;17.4;53.4
57799;BME280;43626;53.866;30.298;2023-05-24T22:41:43;1024.3;;;17.3;53.6
57799;BME280;43626;53.866;30.298;2023-05-24T22:46:51;1024.3;;;17.2;54
57799;BME280;43626;53.866;30.298;2023-05-24T22:51:31;1024.4;;;17.1;54.2
57799;BME280;43626;53.866;30.298;2023-05-24T22:56:41;1024.4;;;17;54.4
57799;BME280;43626;53.866;30.298;2023-05-24T23:01:47;1024.4;;;17;54.5
57799;BME280;43626;53.866;30.298;2023-05-24T23:07:13;1024.4;;;16.9;54.9
57799;BME280;43626;53.866;30.298;2023-05-24T23:11:31;1024.3;;;16.8;55.3
57799;BME280;43626;53.866;30.298;2023-05-24T23:17:13;1024.3;;;16.8;55.3
57799;BME280;43626;53.866;30.298;2023-05-24T23:22:13;1024.4;;;16.6;55.4
57799;BME280;43626;53.866;30.298;2023-05-24T23:26:53;1024.4;;;16.6;55.8
57799;BME280;43626;53.866;30.298;2023-05-24T23:31:47;1024.4;;;16.5;55.3
57799;BME280;43626;53.866;30.298;2023-05-24T23:36:59;1024.4;;;16.5;55.1
57799;BME280;43626;53.866;30.298;2023-05-24T23:42:13;1024.4;;;16.4;55.3
57799;BME280;43626;53.866;30.298;2023-05-24T23:46:41;1024.4;;;16.3;55.5
57799;BME280;43626;53.866;30.298;2023-05-24T23:51:59;1024.4;;;16.3;55.7
57799;BME280;43626;53.866;30.298;2023-05-24T23:56:53;1024.4;;;16.2;55.8
